createdAt,value
2022-08-05T00:00:50.926Z,49.74
2022-08-05T00:03:22.566Z,49.45
2022-08-05T00:06:04.935Z,49.29
2022-08-05T00:08:48.305Z,49.36
2022-08-05T00:11:30.255Z,48.93
2022-08-05T00:14:11.962Z,48.96
2022-08-05T00:16:52.386Z,48.07
2022-08-05T00:19:33.106Z,48.64
2022-08-05T00:22:05.550Z,48.76
2022-08-05T00:24:38.121Z,49.18
2022-08-05T00:27:16.575Z,49.36
2022-08-05T00:29:48.852Z,49.34
2022-08-05T00:32:20.749Z,49.74
2022-08-05T00:35:06.311Z,50.08
2022-08-05T00:37:53.070Z,50.19
2022-08-05T00:40:29.257Z,50.30
2022-08-05T00:43:02.861Z,50.34
2022-08-05T00:45:43.913Z,50.37
2022-08-05T00:48:27.751Z,50.27
2022-08-05T00:51:08.996Z,50.70
2022-08-05T00:54:02.348Z,50.56
2022-08-05T00:56:34.737Z,50.50
2022-08-05T00:59:07.250Z,50.50
2022-08-05T01:01:48.673Z,50.75
2022-08-05T01:04:27.019Z,50.73
2022-08-05T01:07:01.658Z,50.87
2022-08-05T01:09:36.971Z,51.34
2022-08-05T01:12:18.696Z,51.45
2022-08-05T01:15:05.161Z,51.68
2022-08-05T01:17:53.929Z,51.87
2022-08-05T01:20:34.608Z,52.06
2022-08-05T01:23:39.935Z,52.33
2022-08-05T01:26:59.822Z,52.49
2022-08-05T01:29:39.137Z,52.71
2022-08-05T01:32:18.918Z,52.82
2022-08-05T01:34:59.119Z,52.88
2022-08-05T01:37:50.069Z,53.11
2022-08-05T01:40:27.908Z,53.47
2022-08-05T01:43:02.710Z,54.12
2022-08-05T01:45:43.039Z,53.91
2022-08-05T01:48:17.311Z,53.92
2022-08-05T01:50:51.502Z,54.06
2022-08-05T01:53:57.791Z,54.45
2022-08-05T01:58:10.552Z,55.11
2022-08-05T01:59:15.599Z,55.08
2022-08-05T02:01:50.181Z,54.89
2022-08-05T02:04:22.602Z,55.02
2022-08-05T02:06:56.344Z,54.73
2022-08-05T02:09:29.585Z,54.65
2022-08-05T02:12:12.553Z,54.34
2022-08-05T02:14:49.616Z,55.01
2022-08-05T02:18:31.093Z,55.31
2022-08-05T02:20:26.529Z,55.21
2022-08-05T02:23:08.957Z,55.24
2022-08-05T02:25:49.707Z,55.06
2022-08-05T02:28:32.119Z,54.78
2022-08-05T02:31:14.547Z,53.87
2022-08-05T02:33:57.394Z,54.14
2022-08-05T02:36:32.794Z,55.19
2022-08-05T02:39:08.614Z,55.48
2022-08-05T02:41:57.764Z,55.17
2022-08-05T02:44:36.399Z,55.42
2022-08-05T02:47:11.166Z,55.31
2022-08-05T02:49:44.552Z,55.09
2022-08-05T02:52:29.887Z,55.35
2022-08-05T02:55:10.680Z,54.83
2022-08-05T02:58:11.989Z,55.36
2022-08-05T03:00:37.236Z,54.98
2022-08-05T03:03:15.012Z,54.61
2022-08-05T03:06:54.923Z,54.58
2022-08-05T03:08:43.208Z,54.17
2022-08-05T03:11:54.861Z,53.96
2022-08-05T03:14:14.945Z,53.91
2022-08-05T03:16:46.532Z,53.98
2022-08-05T03:19:33.968Z,53.69
2022-08-05T03:22:16.840Z,54.14
2022-08-05T03:24:52.348Z,54.22
2022-08-05T03:27:39.183Z,54.51
2022-08-05T03:30:16.329Z,54.90
2022-08-05T03:32:53.321Z,54.83
2022-08-05T03:35:26.925Z,55.10
2022-08-05T03:38:02.678Z,55.41
2022-08-05T03:40:34.389Z,55.69
2022-08-05T03:43:58.405Z,55.67
2022-08-05T03:45:59.625Z,55.75
2022-08-05T03:48:35.613Z,56.18
2022-08-05T03:52:39.291Z,56.12
2022-08-05T03:55:52.674Z,56.48
2022-08-05T03:57:41.386Z,56.77
2022-08-05T04:00:16.631Z,57.01
2022-08-05T04:02:58.578Z,56.98
2022-08-05T04:05:34.563Z,57.09
2022-08-05T04:08:14.855Z,57.60
2022-08-05T04:11:02.559Z,57.55
2022-08-05T04:13:50.564Z,57.78
2022-08-05T04:16:25.020Z,57.78
2022-08-05T04:18:57.998Z,57.78
2022-08-05T04:22:08.063Z,57.73
2022-08-05T04:24:23.020Z,57.75
2022-08-05T04:26:54.607Z,57.59
2022-08-05T04:29:29.772Z,57.88
2022-08-05T04:32:01.942Z,57.68
2022-08-05T04:34:36.609Z,57.72
2022-08-05T04:37:14.391Z,57.49
2022-08-05T04:39:46.076Z,56.64
2022-08-05T04:42:25.546Z,56.17
2022-08-05T04:44:57.265Z,55.98
2022-08-05T04:47:38.458Z,55.66
2022-08-05T04:50:11.541Z,55.10
2022-08-05T04:52:43.347Z,54.75
2022-08-05T04:55:16.461Z,54.71
2022-08-05T04:57:54.241Z,54.41
2022-08-05T05:00:26.303Z,53.90
2022-08-05T05:03:02.877Z,53.29
2022-08-05T05:06:36.178Z,52.63
2022-08-05T05:08:30.057Z,52.36
2022-08-05T05:11:02.205Z,51.95
2022-08-05T05:13:43.202Z,51.40
2022-08-05T05:16:16.167Z,50.59
2022-08-05T05:19:16.460Z,50.19
2022-08-05T05:21:42.980Z,50.02
2022-08-05T05:24:18.038Z,49.48
2022-08-05T05:26:51.799Z,49.00
2022-08-05T05:29:23.909Z,48.83
2022-08-05T05:32:18.600Z,48.18
2022-08-05T05:34:52.481Z,47.18
2022-08-05T05:37:37.346Z,46.91
2022-08-05T05:40:17.123Z,46.79
2022-08-05T05:42:54.365Z,45.95
2022-08-05T05:45:26.115Z,45.69
2022-08-05T05:48:06.333Z,45.30
2022-08-05T05:50:44.274Z,45.76
2022-08-05T05:53:21.409Z,44.42
2022-08-05T05:56:00.880Z,43.25
2022-08-05T05:58:34.838Z,42.38
2022-08-05T06:01:13.078Z,40.96
2022-08-05T06:04:00.434Z,40.98
2022-08-05T06:06:34.777Z,39.91
2022-08-05T06:09:07.611Z,40.23
2022-08-05T06:11:39.539Z,40.22
2022-08-05T06:14:11.154Z,40.36
2022-08-05T06:16:42.742Z,39.28
2022-08-05T06:19:26.122Z,39.01
2022-08-05T06:22:07.569Z,37.96
2022-08-05T06:24:48.327Z,38.14
2022-08-05T06:28:11.644Z,37.19
2022-08-05T06:30:17.853Z,36.45
2022-08-05T06:32:53.094Z,36.63
2022-08-05T06:36:07.556Z,36.33
2022-08-05T06:38:18.641Z,37.54
2022-08-05T06:41:08.689Z,37.06
2022-08-05T06:43:51.588Z,36.38
2022-08-05T06:46:31.842Z,35.64
2022-08-05T06:49:05.818Z,35.40
2022-08-05T06:51:40.835Z,36.14
2022-08-05T06:54:18.209Z,33.91
2022-08-05T06:56:54.708Z,33.02
2022-08-05T06:59:48.534Z,33.38
2022-08-05T07:02:32.463Z,33.00
2022-08-05T07:05:15.383Z,32.89
2022-08-05T07:07:53.874Z,31.80
2022-08-05T07:10:26.095Z,30.40
2022-08-05T07:13:46.377Z,30.62
2022-08-05T07:17:57.266Z,30.71
2022-08-05T07:20:05.773Z,30.79
2022-08-05T07:22:17.460Z,31.08
2022-08-05T07:24:52.623Z,30.66
2022-08-05T07:27:27.748Z,30.33
2022-08-05T07:30:27.639Z,30.58
2022-08-05T07:33:04.979Z,30.26
2022-08-05T07:36:01.558Z,30.40
2022-08-05T07:38:42.803Z,30.17
2022-08-05T07:42:07.210Z,30.16
2022-08-05T07:44:18.758Z,30.11
2022-08-05T07:46:50.881Z,30.09
2022-08-05T07:49:23.002Z,29.69
2022-08-05T07:51:55.212Z,29.52
2022-08-05T07:54:31.579Z,29.63
2022-08-05T07:57:22.882Z,29.10
2022-08-05T07:59:57.362Z,29.13
2022-08-05T08:02:31.463Z,29.07
2022-08-05T08:05:21.198Z,28.93
2022-08-05T08:07:59.655Z,28.56
2022-08-05T08:10:35.360Z,28.74
2022-08-05T08:13:07.990Z,27.66
2022-08-05T08:16:35.563Z,27.07
2022-08-05T08:18:37.941Z,26.90
2022-08-05T08:21:15.968Z,26.31
2022-08-05T08:24:03.164Z,26.41
2022-08-05T08:26:36.450Z,26.67
2022-08-05T08:30:04.102Z,26.21
2022-08-05T08:32:05.996Z,26.59
2022-08-05T08:34:42.879Z,25.90
2022-08-05T08:37:14.519Z,26.30
2022-08-05T08:39:50.687Z,25.41
2022-08-05T08:42:33.735Z,25.09
2022-08-05T08:45:23.609Z,25.27
2022-08-05T08:48:12.896Z,25.40
2022-08-05T08:51:22.134Z,25.29
2022-08-05T08:53:47.684Z,25.14
2022-08-05T08:56:21.138Z,25.32
2022-08-05T08:58:54.784Z,25.13
2022-08-05T09:01:30.394Z,25.13
2022-08-05T09:04:02.145Z,24.48
2022-08-05T09:06:36.308Z,24.41
2022-08-05T09:09:08.084Z,24.23
2022-08-05T09:11:52.906Z,23.94
2022-08-05T09:14:58.634Z,24.01
2022-08-05T09:17:40.542Z,23.56
2022-08-05T09:20:11.888Z,24.20
2022-08-05T09:23:08.968Z,24.47
2022-08-05T09:26:03.111Z,24.57
2022-08-05T09:28:37.418Z,24.82
2022-08-05T09:31:43.406Z,26.55
2022-08-05T09:34:10.318Z,25.38
2022-08-05T09:36:59.689Z,24.78
2022-08-05T09:39:41.324Z,24.89
2022-08-05T09:42:28.293Z,24.40
2022-08-05T09:46:05.070Z,23.68
2022-08-05T09:47:58.214Z,23.97
2022-08-05T09:50:44.746Z,23.58
2022-08-05T09:53:26.043Z,23.78
2022-08-05T09:56:12.959Z,24.27
2022-08-05T09:58:56.689Z,24.48
2022-08-05T10:01:32.446Z,23.49
2022-08-05T10:04:12.247Z,23.25
2022-08-05T10:06:59.668Z,23.63
2022-08-05T10:09:44.941Z,24.71
2022-08-05T10:12:30.184Z,23.20
2022-08-05T10:15:20.143Z,23.95
2022-08-05T10:18:12.607Z,24.14
2022-08-05T10:20:50.358Z,24.21
2022-08-05T10:23:55.246Z,24.86
2022-08-05T10:26:17.181Z,25.88
2022-08-05T10:28:48.964Z,24.74
2022-08-05T10:32:53.915Z,24.95
2022-08-05T10:34:12.199Z,24.77
2022-08-05T10:36:46.089Z,23.95
2022-08-05T10:39:58.977Z,24.58
2022-08-05T10:42:34.013Z,23.74
2022-08-05T10:45:09.793Z,24.14
2022-08-05T10:48:29.277Z,22.68
2022-08-05T10:51:22.340Z,23.31
2022-08-05T10:53:58.355Z,22.84
2022-08-05T10:56:53.333Z,21.76
2022-08-05T11:00:03.101Z,20.72
2022-08-05T11:02:34.915Z,21.44
2022-08-05T11:05:13.574Z,22.26
2022-08-05T11:08:04.795Z,22.90
2022-08-05T11:11:00.155Z,21.33
2022-08-05T11:13:54.854Z,21.72
2022-08-05T11:16:33.830Z,21.62
2022-08-05T11:20:10.583Z,21.55
2022-08-05T11:22:49.688Z,21.97
2022-08-05T11:26:05.322Z,22.81
2022-08-05T11:28:20.213Z,22.31
2022-08-05T11:30:58.309Z,22.44
2022-08-05T11:33:43.993Z,21.27
2022-08-05T11:36:34.248Z,22.49
2022-08-05T11:39:13.631Z,21.91
2022-08-05T11:42:01.033Z,22.48
2022-08-05T11:44:40.347Z,23.05
2022-08-05T11:47:15.093Z,22.74
2022-08-05T11:49:56.293Z,22.46
2022-08-05T11:52:31.066Z,22.14
2022-08-05T11:55:07.054Z,22.66
2022-08-05T11:58:09.587Z,22.71
2022-08-05T12:00:38.637Z,22.47
2022-08-05T12:03:24.015Z,22.36
2022-08-05T12:06:06.507Z,21.64
2022-08-05T12:08:49.816Z,21.94
2022-08-05T12:11:28.256Z,23.28
2022-08-05T12:14:12.190Z,23.37
2022-08-05T12:16:47.225Z,23.18
2022-08-05T12:20:26.137Z,23.83
2022-08-05T12:22:13.760Z,23.89
2022-08-05T12:24:52.150Z,23.65
2022-08-05T12:27:32.924Z,22.44
2022-08-05T12:30:15.195Z,22.57
2022-08-05T12:32:53.770Z,22.28
2022-08-05T12:35:39.429Z,22.54
2022-08-05T12:38:15.167Z,22.90
2022-08-05T12:40:46.901Z,22.25
2022-08-05T12:43:20.700Z,22.00
2022-08-05T12:45:56.554Z,22.66
2022-08-05T12:48:37.864Z,22.98
2022-08-05T12:52:10.378Z,23.59
2022-08-05T12:54:16.905Z,23.40
2022-08-05T12:56:57.864Z,23.02
2022-08-05T13:01:56.932Z,22.55
2022-08-05T13:02:41.447Z,23.17
2022-08-05T13:05:16.015Z,23.37
2022-08-05T13:08:00.095Z,24.35
2022-08-05T13:10:50.354Z,24.38
2022-08-05T13:14:04.754Z,23.99
2022-08-05T13:16:15.432Z,23.94
2022-08-05T13:18:57.642Z,24.09
2022-08-05T13:21:47.793Z,24.21
2022-08-05T13:24:45.003Z,25.07
2022-08-05T13:27:45.127Z,25.45
2022-08-05T13:30:34.712Z,24.20
2022-08-05T13:33:08.468Z,24.13
2022-08-05T13:35:50.449Z,23.71
2022-08-05T13:38:31.192Z,24.76
2022-08-05T13:41:07.601Z,23.99
2022-08-05T13:43:43.291Z,24.21
2022-08-05T13:46:30.646Z,23.82
2022-08-05T13:49:10.103Z,23.63
2022-08-05T13:51:46.451Z,23.63
2022-08-05T13:54:21.099Z,23.79
2022-08-05T13:56:58.167Z,25.99
2022-08-05T13:59:30.878Z,26.48
2022-08-05T14:02:04.028Z,26.14
2022-08-05T14:04:56.802Z,25.45
2022-08-05T14:08:00.327Z,25.54
2022-08-05T14:10:34.824Z,25.70
2022-08-05T14:13:09.859Z,26.27
2022-08-05T14:16:07.976Z,25.48
2022-08-05T14:18:41.363Z,26.39
2022-08-05T14:22:08.472Z,26.13
2022-08-05T14:24:05.001Z,26.46
2022-08-05T14:26:51.493Z,26.13
2022-08-05T14:29:31.315Z,26.54
2022-08-05T14:32:13.134Z,26.17
2022-08-05T14:34:48.763Z,26.68
2022-08-05T14:37:24.205Z,26.33
2022-08-05T14:40:17.047Z,27.12
2022-08-05T14:42:48.814Z,26.55
2022-08-05T14:45:23.785Z,26.28
2022-08-05T14:48:05.042Z,26.62
2022-08-05T14:50:40.634Z,25.96
2022-08-05T14:53:12.636Z,25.81
2022-08-05T14:55:48.341Z,25.13
2022-08-05T14:58:24.148Z,25.63
2022-08-05T15:00:58.307Z,25.19
2022-08-05T15:03:33.172Z,25.46
2022-08-05T15:06:15.534Z,25.15
2022-08-05T15:09:01.160Z,25.04
2022-08-05T15:11:51.089Z,25.18
2022-08-05T15:14:34.511Z,25.34
2022-08-05T15:17:18.984Z,24.95
2022-08-05T15:20:04.680Z,25.18
2022-08-05T15:22:36.351Z,26.45
2022-08-05T15:25:11.616Z,26.38
2022-08-05T15:27:52.504Z,26.49
2022-08-05T15:30:26.582Z,26.48
2022-08-05T15:33:01.131Z,26.28
2022-08-05T15:35:36.191Z,26.16
2022-08-05T15:38:36.110Z,26.06
2022-08-05T15:41:23.306Z,26.08
2022-08-05T15:43:56.038Z,25.99
2022-08-05T15:46:27.992Z,26.08
2022-08-05T15:49:01.463Z,26.46
2022-08-05T15:52:04.492Z,26.84
2022-08-05T15:54:37.596Z,26.59
2022-08-05T15:57:09.303Z,26.86
2022-08-05T15:59:41.407Z,26.68
2022-08-05T16:02:14.775Z,26.95
2022-08-05T16:04:52.745Z,26.37
2022-08-05T16:07:29.637Z,26.83
2022-08-05T16:10:01.564Z,26.54
2022-08-05T16:12:33.967Z,26.77
2022-08-05T16:15:06.444Z,26.26
2022-08-05T16:17:41.154Z,26.95
2022-08-05T16:20:12.933Z,27.04
2022-08-05T16:22:44.712Z,27.08
2022-08-05T16:25:16.362Z,27.06
2022-08-05T16:28:02.071Z,27.92
2022-08-05T16:30:37.659Z,28.10
2022-08-05T16:33:09.366Z,29.05
2022-08-05T16:35:42.987Z,28.66
2022-08-05T16:38:25.512Z,28.33
2022-08-05T16:41:02.375Z,28.93
2022-08-05T16:43:56.194Z,28.85
2022-08-05T16:46:28.258Z,28.97
2022-08-05T16:48:59.897Z,28.35
2022-08-05T16:51:42.716Z,29.00
2022-08-05T16:54:28.617Z,29.08
2022-08-05T16:57:03.777Z,28.89
2022-08-05T17:00:01.434Z,28.79
2022-08-05T17:02:36.256Z,29.02
2022-08-05T17:05:09.818Z,29.12
2022-08-05T17:07:47.339Z,28.88
2022-08-05T17:10:30.490Z,28.84
2022-08-05T17:13:02.508Z,29.27
2022-08-05T17:15:47.839Z,29.20
2022-08-05T17:18:20.314Z,28.52
2022-08-05T17:20:55.458Z,29.33
2022-08-05T17:24:05.988Z,29.08
2022-08-05T17:26:19.177Z,29.04
2022-08-05T17:28:51.864Z,29.19
2022-08-05T17:31:24.497Z,29.04
2022-08-05T17:34:13.274Z,29.54
2022-08-05T17:36:49.789Z,29.68
2022-08-05T17:39:23.923Z,29.52
2022-08-05T17:42:20.087Z,29.47
2022-08-05T17:44:50.255Z,29.29
2022-08-05T17:47:24.159Z,28.89
2022-08-05T17:50:04.205Z,28.83
2022-08-05T17:52:52.987Z,28.79
2022-08-05T17:55:37.170Z,28.48
2022-08-05T17:58:14.588Z,27.90
2022-08-05T18:00:50.717Z,28.28
2022-08-05T18:06:14.998Z,28.07
2022-08-05T18:08:52.599Z,28.24
2022-08-05T18:11:33.014Z,28.18
2022-08-05T18:14:13.390Z,27.97
2022-08-05T18:16:52.535Z,28.65
2022-08-05T18:19:26.071Z,28.72
2022-08-05T18:22:09.296Z,28.76
2022-08-05T18:24:43.080Z,28.71
2022-08-05T18:27:18.854Z,29.21
2022-08-05T18:29:54.581Z,29.13
2022-08-05T18:32:28.293Z,29.54
2022-08-05T18:35:01.329Z,29.39
2022-08-05T18:37:40.459Z,29.45
2022-08-05T18:40:33.857Z,29.52
2022-08-05T18:43:09.021Z,30.08
2022-08-05T18:45:48.822Z,30.67
2022-08-05T18:48:31.606Z,30.91
2022-08-05T18:52:04.542Z,31.20
2022-08-05T18:54:15.335Z,31.89
2022-08-05T18:56:51.830Z,32.48
2022-08-05T18:59:43.409Z,35.93
2022-08-05T19:02:36.494Z,37.09
2022-08-05T19:06:05.748Z,38.26
2022-08-05T19:08:02.789Z,38.25
2022-08-05T19:10:34.612Z,38.53
2022-08-05T19:13:12.279Z,38.81
2022-08-05T19:15:57.582Z,38.77
2022-08-05T19:18:32.303Z,39.46
2022-08-05T19:21:04.865Z,39.18
2022-08-05T19:24:06.439Z,39.27
2022-08-05T19:26:29.979Z,39.50
2022-08-05T19:29:01.684Z,40.02
2022-08-05T19:31:44.784Z,40.15
2022-08-05T19:34:23.178Z,40.13
2022-08-05T19:36:54.798Z,40.02
2022-08-05T19:39:27.423Z,40.37
2022-08-05T19:42:07.921Z,40.50
2022-08-05T19:44:44.903Z,40.89
2022-08-05T19:47:18.802Z,42.31
2022-08-05T19:49:50.500Z,41.41
2022-08-05T19:52:32.587Z,41.42
2022-08-05T19:55:07.261Z,42.23
2022-08-05T19:58:07.165Z,40.08
2022-08-05T20:00:49.129Z,39.62
2022-08-05T20:03:20.795Z,39.63
2022-08-05T20:05:57.936Z,38.78
2022-08-05T20:08:31.229Z,38.71
2022-08-05T20:11:02.906Z,38.43
2022-08-05T20:13:59.167Z,38.25
2022-08-05T20:16:26.252Z,38.70
2022-08-05T20:18:59.455Z,38.82
2022-08-05T20:21:33.011Z,38.75
2022-08-05T20:24:05.277Z,38.55
2022-08-05T20:26:37.155Z,37.88
2022-08-05T20:29:14.384Z,38.32
2022-08-05T20:31:59.854Z,37.93
2022-08-05T20:34:31.532Z,38.12
2022-08-05T20:37:03.257Z,38.34
2022-08-05T20:39:36.846Z,38.50
2022-08-05T20:42:11.647Z,39.08
2022-08-05T20:44:43.459Z,39.03
2022-08-05T20:47:16.957Z,39.73
2022-08-05T20:49:51.325Z,40.23
2022-08-05T20:52:23.215Z,40.24
2022-08-05T20:55:15.834Z,42.05
2022-08-05T20:57:46.650Z,41.61
2022-08-05T21:00:40.592Z,41.93
2022-08-05T21:03:12.237Z,41.75
2022-08-05T21:05:54.659Z,42.58
2022-08-05T21:08:42.254Z,42.20
2022-08-05T21:12:10.869Z,42.49
2022-08-05T21:14:10.551Z,43.07
2022-08-05T21:16:44.578Z,43.53
2022-08-05T21:19:16.189Z,43.89
2022-08-05T21:21:50.596Z,44.38
2022-08-05T21:24:23.341Z,44.46
2022-08-05T21:26:58.983Z,44.62
2022-08-05T21:29:32.556Z,44.72
2022-08-05T21:32:19.921Z,45.12
2022-08-05T21:35:08.989Z,45.47
2022-08-05T21:37:47.294Z,46.41
2022-08-05T21:40:28.205Z,46.04
2022-08-05T21:43:02.059Z,46.47
2022-08-05T21:45:51.632Z,46.72
2022-08-05T21:48:29.222Z,46.90
2022-08-05T21:51:03.971Z,48.06
2022-08-05T21:53:56.811Z,47.99
2022-08-05T21:56:35.159Z,48.85
2022-08-05T21:59:24.039Z,48.88
2022-08-05T22:01:57.100Z,49.33
2022-08-05T22:04:28.960Z,49.28
2022-08-05T22:07:01.087Z,50.15
2022-08-05T22:09:46.061Z,49.83
2022-08-05T22:12:19.339Z,51.27
2022-08-05T22:14:58.523Z,51.63
2022-08-05T22:17:39.993Z,51.64
2022-08-05T22:20:20.465Z,52.66
2022-08-05T22:23:17.198Z,53.00
2022-08-05T22:26:15.060Z,53.04
2022-08-05T22:28:46.778Z,53.81
2022-08-05T22:31:18.642Z,54.19
2022-08-05T22:33:57.796Z,54.58
2022-08-05T22:36:32.994Z,55.99
2022-08-05T22:39:09.796Z,55.55
2022-08-05T22:42:11.835Z,56.10
2022-08-05T22:44:38.093Z,56.18
2022-08-05T22:47:09.722Z,57.63
2022-08-05T22:50:21.750Z,56.69
2022-08-05T22:52:40.028Z,57.88
2022-08-05T22:55:19.482Z,57.34
2022-08-05T22:57:56.190Z,57.69
2022-08-05T23:00:29.730Z,58.16
2022-08-05T23:03:04.137Z,58.97
2022-08-05T23:05:36.340Z,58.79
2022-08-05T23:08:12.350Z,58.88
2022-08-05T23:10:45.877Z,59.20
2022-08-05T23:13:17.522Z,58.98
2022-08-05T23:15:51.813Z,58.38
2022-08-05T23:18:23.496Z,59.93
2022-08-05T23:20:55.159Z,60.25
2022-08-05T23:23:29.979Z,60.07
2022-08-05T23:26:08.133Z,61.38
2022-08-05T23:28:39.593Z,60.46
2022-08-05T23:31:17.087Z,61.24
2022-08-05T23:34:04.557Z,61.68
2022-08-05T23:36:44.725Z,61.59
2022-08-05T23:39:23.738Z,61.57
2022-08-05T23:42:04.438Z,62.15
2022-08-05T23:44:40.312Z,62.60
2022-08-05T23:47:17.438Z,62.34
2022-08-05T23:49:49.036Z,62.24
2022-08-05T23:52:29.281Z,62.43
2022-08-05T23:55:07.118Z,63.28
2022-08-05T23:57:40.675Z,63.56
